createdAt,value
2023-02-17T00:01:15.827Z,100421.06
2023-02-17T00:04:03.122Z,100451.25
2023-02-17T00:06:51.270Z,100446.09
2023-02-17T00:09:38.279Z,100454.81
2023-02-17T00:12:25.383Z,100452.22
2023-02-17T00:15:12.377Z,100453.13
2023-02-17T00:17:59.301Z,100440.16
2023-02-17T00:20:46.309Z,100442.69
2023-02-17T00:23:33.257Z,100454.00
2023-02-17T00:26:20.182Z,100440.94
2023-02-17T00:29:08.435Z,100425.41
2023-02-17T00:31:55.667Z,100433.13
2023-02-17T00:34:43.342Z,100411.53
2023-02-17T00:37:30.244Z,100430.53
2023-02-17T00:40:17.218Z,100433.19
2023-02-17T00:43:04.286Z,100428.03
2023-02-17T00:45:51.317Z,100432.38
2023-02-17T00:48:41.283Z,100405.66
2023-02-17T00:51:28.762Z,100424.56
2023-02-17T00:54:16.608Z,100436.81
2023-02-17T00:57:04.246Z,100428.94
2023-02-17T00:59:52.184Z,100431.53
2023-02-17T01:02:39.015Z,100432.47
2023-02-17T01:05:26.427Z,100427.22
2023-02-17T01:08:13.637Z,100411.66
2023-02-17T01:11:02.442Z,100414.97
2023-02-17T01:13:51.201Z,100410.56
2023-02-17T01:16:42.583Z,100406.25
2023-02-17T01:19:32.994Z,100418.34
2023-02-17T01:22:20.093Z,100418.34
2023-02-17T01:25:07.937Z,100421.84
2023-02-17T01:27:55.304Z,100413.25
2023-02-17T01:30:42.570Z,100415.81
2023-02-17T01:33:30.137Z,100414.94
2023-02-17T01:36:02.648Z,100408.84
2023-02-17T01:38:29.692Z,100407.13
2023-02-17T01:40:56.683Z,100380.44
2023-02-17T01:43:23.749Z,100407.16
2023-02-17T01:45:58.768Z,100407.16
2023-02-17T01:48:30.283Z,100413.31
2023-02-17T01:51:02.823Z,100401.16
2023-02-17T01:53:39.891Z,100400.28
2023-02-17T01:56:08.562Z,100403.81
2023-02-17T01:58:40.578Z,100399.44
2023-02-17T02:01:08.358Z,100338.22
2023-02-17T02:03:38.271Z,100403.00
2023-02-17T02:06:13.413Z,100387.50
2023-02-17T02:08:54.870Z,100396.06
2023-02-17T02:11:21.809Z,100391.00
2023-02-17T02:13:50.759Z,100411.84
2023-02-17T02:16:30.948Z,100380.69
2023-02-17T02:19:20.178Z,100398.84
2023-02-17T02:22:18.581Z,100394.53
2023-02-17T02:25:13.220Z,100393.66
2023-02-17T02:27:54.366Z,100395.50
2023-02-17T02:30:33.285Z,100392.94
2023-02-17T02:33:12.097Z,100392.03
2023-02-17T02:35:57.568Z,100384.22
2023-02-17T02:38:56.710Z,100373.78
2023-02-17T02:41:58.121Z,100355.88
2023-02-17T02:44:45.257Z,100367.91
2023-02-17T02:47:51.009Z,100380.06
2023-02-17T02:51:20.961Z,100380.13
2023-02-17T02:54:32.137Z,100364.41
2023-02-17T02:57:40.593Z,100367.09
2023-02-17T03:00:40.487Z,100371.53
2023-02-17T03:03:39.325Z,100373.31
2023-02-17T03:06:31.796Z,100362.00
2023-02-17T03:09:22.741Z,100365.47
2023-02-17T03:12:10.966Z,100349.94
2023-02-17T03:14:59.017Z,100281.91
2023-02-17T03:17:45.986Z,100356.88
2023-02-17T03:20:34.851Z,100287.00
2023-02-17T03:23:24.782Z,100349.88
2023-02-17T03:26:11.784Z,100355.09
2023-02-17T03:28:58.748Z,100349.91
2023-02-17T03:31:45.853Z,100360.31
2023-02-17T03:34:33.085Z,100354.97
2023-02-17T03:37:20.184Z,100354.94
2023-02-17T03:40:07.204Z,100341.84
2023-02-17T03:42:54.390Z,100311.69
2023-02-17T03:45:41.259Z,100326.28
2023-02-17T03:48:28.338Z,100315.97
2023-02-17T03:51:15.376Z,100331.47
2023-02-17T03:54:03.154Z,100342.72
2023-02-17T03:56:50.232Z,100339.25
2023-02-17T03:59:37.694Z,100293.56
2023-02-17T04:02:24.665Z,100334.09
2023-02-17T04:05:11.763Z,100340.16
2023-02-17T04:07:58.824Z,100328.06
2023-02-17T04:10:45.850Z,100334.16
2023-02-17T04:13:32.813Z,100329.84
2023-02-17T04:16:20.118Z,100328.09
2023-02-17T04:19:07.029Z,100324.72
2023-02-17T04:21:54.241Z,100297.09
2023-02-17T04:24:41.213Z,100323.00
2023-02-17T04:27:28.257Z,100323.94
2023-02-17T04:30:15.208Z,100318.75
2023-02-17T04:33:02.528Z,100323.13
2023-02-17T04:35:49.521Z,100294.78
2023-02-17T04:38:37.282Z,100313.72
2023-02-17T04:41:25.783Z,100306.09
2023-02-17T04:44:12.907Z,100311.19
2023-02-17T04:46:59.821Z,100312.09
2023-02-17T04:50:06.625Z,100313.03
2023-02-17T04:52:53.480Z,100306.94
2023-02-17T04:55:40.486Z,100284.72
2023-02-17T04:58:28.206Z,100315.81
2023-02-17T05:01:19.509Z,100315.88
2023-02-17T05:04:06.409Z,100308.97
2023-02-17T05:06:53.418Z,100312.50
2023-02-17T05:09:40.637Z,100299.63
2023-02-17T05:12:27.775Z,100312.63
2023-02-17T05:15:14.666Z,100308.34
2023-02-17T05:18:01.954Z,100306.66
2023-02-17T05:20:49.168Z,100300.66
2023-02-17T05:23:36.479Z,100293.75
2023-02-17T05:26:23.516Z,100300.75
2023-02-17T05:29:10.966Z,100302.56
2023-02-17T05:31:57.944Z,100293.00
2023-02-17T05:34:44.880Z,100293.91
2023-02-17T05:37:31.801Z,100281.88
2023-02-17T05:40:22.049Z,100300.03
2023-02-17T05:43:09.026Z,100290.47
2023-02-17T05:45:55.986Z,100290.41
2023-02-17T05:48:42.842Z,100294.69
2023-02-17T05:51:29.882Z,100292.09
2023-02-17T05:54:16.830Z,100291.34
2023-02-17T05:57:03.796Z,100304.28
2023-02-17T05:59:50.753Z,100295.59
2023-02-17T06:02:37.923Z,100296.47
2023-02-17T06:05:24.907Z,100276.63
2023-02-17T06:08:12.041Z,100281.78
2023-02-17T06:10:59.041Z,100282.63
2023-02-17T06:13:46.297Z,100274.84
2023-02-17T06:16:33.159Z,100269.69
2023-02-17T06:19:20.360Z,100272.38
2023-02-17T06:22:07.227Z,100256.03
2023-02-17T06:24:54.689Z,100257.81
2023-02-17T06:27:41.637Z,100264.69
2023-02-17T06:30:29.285Z,100240.50
2023-02-17T06:33:16.328Z,100183.63
2023-02-17T06:36:07.852Z,100247.41
2023-02-17T06:38:54.753Z,100252.53
2023-02-17T06:41:42.155Z,100206.78
2023-02-17T06:44:29.421Z,100250.81
2023-02-17T06:47:16.557Z,100224.97
2023-02-17T06:50:03.335Z,100254.28
2023-02-17T06:52:50.622Z,100216.34
2023-02-17T06:55:37.686Z,100245.59
2023-02-17T06:58:24.738Z,100236.03
2023-02-17T07:01:11.758Z,100253.47
2023-02-17T07:03:58.772Z,100247.34
2023-02-17T07:06:46.027Z,100220.59
2023-02-17T07:09:33.396Z,100170.63
2023-02-17T07:12:20.886Z,100235.25
2023-02-17T07:15:11.831Z,100238.66
2023-02-17T07:17:58.935Z,100238.66
2023-02-17T07:20:45.913Z,100228.22
2023-02-17T07:23:32.793Z,100157.53
2023-02-17T07:26:27.339Z,100229.97
2023-02-17T07:29:14.157Z,100229.97
2023-02-17T07:32:01.214Z,100226.50
2023-02-17T07:34:48.062Z,100234.34
2023-02-17T07:37:35.031Z,100236.06
2023-02-17T07:40:22.014Z,100240.47
2023-02-17T07:43:08.999Z,100204.16
2023-02-17T07:45:57.682Z,100229.19
2023-02-17T07:48:46.254Z,100234.38
2023-02-17T07:51:36.208Z,100232.69
2023-02-17T07:54:23.256Z,100230.91
2023-02-17T07:57:10.194Z,100228.28
2023-02-17T07:59:57.381Z,100224.88
2023-02-17T08:02:44.268Z,100230.94
2023-02-17T08:05:31.220Z,100238.78
2023-02-17T08:08:16.837Z,100230.97
2023-02-17T08:11:02.442Z,100230.97
2023-02-17T08:13:29.563Z,100211.06
2023-02-17T08:15:56.598Z,100209.44
2023-02-17T08:18:23.427Z,100233.59
2023-02-17T08:20:50.627Z,100210.34
2023-02-17T08:23:39.592Z,100211.97
2023-02-17T08:26:26.641Z,100226.66
2023-02-17T08:29:13.655Z,100230.16
2023-02-17T08:32:01.917Z,100225.81
2023-02-17T08:34:49.331Z,100224.09
2023-02-17T08:37:18.560Z,100224.97
2023-02-17T08:39:45.472Z,100221.50
2023-02-17T08:42:12.571Z,100220.59
2023-02-17T08:44:40.235Z,100224.94
2023-02-17T08:47:07.598Z,100202.38
2023-02-17T08:49:35.006Z,100197.91
2023-02-17T08:52:02.534Z,100204.84
2023-02-17T08:54:29.647Z,100170.16
2023-02-17T08:56:56.671Z,100184.72
2023-02-17T08:59:23.661Z,100191.66
2023-02-17T09:01:51.022Z,100171.56
2023-02-17T09:04:18.843Z,100188.94
2023-02-17T09:06:49.677Z,100173.28
2023-02-17T09:09:19.613Z,100171.47
2023-02-17T09:11:46.690Z,100177.47
2023-02-17T09:14:13.713Z,100180.84
2023-02-17T09:16:41.682Z,100183.41
2023-02-17T09:19:08.839Z,100174.66
2023-02-17T09:21:37.166Z,100171.03
2023-02-17T09:24:24.347Z,100165.81
2023-02-17T09:27:11.310Z,100145.19
2023-02-17T09:29:58.836Z,100175.13
2023-02-17T09:32:45.892Z,100179.41
2023-02-17T09:35:34.760Z,100174.94
2023-02-17T09:38:21.708Z,100179.16
2023-02-17T09:40:50.250Z,100166.91
2023-02-17T09:43:22.514Z,100165.03
2023-02-17T09:45:52.700Z,100164.06
2023-02-17T09:48:23.646Z,100152.69
2023-02-17T09:51:12.563Z,100147.28
2023-02-17T09:53:52.833Z,100149.78
2023-02-17T09:56:29.962Z,100152.28
2023-02-17T09:59:02.883Z,100150.44
2023-02-17T10:01:32.900Z,100152.13
2023-02-17T10:04:12.007Z,100142.41
2023-02-17T10:06:43.585Z,100131.81
2023-02-17T10:09:31.317Z,100126.47
2023-02-17T10:12:05.587Z,100118.50
2023-02-17T10:14:51.285Z,100114.94
2023-02-17T10:17:21.612Z,100119.13
2023-02-17T10:20:14.014Z,100099.19
2023-02-17T10:22:46.100Z,100106.72
2023-02-17T10:25:33.311Z,100111.84
2023-02-17T10:28:17.929Z,100100.38
2023-02-17T10:30:53.266Z,100102.84
2023-02-17T10:33:36.089Z,100103.59
2023-02-17T10:36:19.233Z,100097.38
2023-02-17T10:38:49.012Z,100097.28
2023-02-17T10:41:22.584Z,100090.16
2023-02-17T10:43:50.803Z,100089.25
2023-02-17T10:46:22.028Z,100080.44
2023-02-17T10:48:52.557Z,100045.84
2023-02-17T10:51:23.490Z,100074.97
2023-02-17T10:54:00.656Z,100069.66
2023-02-17T10:56:37.133Z,100005.13
2023-02-17T10:59:28.407Z,100069.47
2023-02-17T11:02:37.178Z,100054.53
2023-02-17T11:05:25.156Z,100031.25
2023-02-17T11:08:21.914Z,100029.38
2023-02-17T11:11:20.497Z,99969.16
2023-02-17T11:14:26.143Z,100038.53
2023-02-17T11:17:20.782Z,100034.09
2023-02-17T11:20:33.775Z,100020.16
2023-02-17T11:23:35.858Z,100019.13
2023-02-17T11:26:30.925Z,100011.19
2023-02-17T11:29:40.982Z,100007.69
2023-02-17T11:32:31.958Z,99973.13
2023-02-17T11:35:22.980Z,99998.81
2023-02-17T11:37:50.115Z,99987.47
2023-02-17T11:40:52.178Z,99908.44
2023-02-17T11:43:19.255Z,99923.59
2023-02-17T11:46:04.615Z,99968.97
2023-02-17T11:48:51.136Z,99962.78
2023-02-17T11:51:40.172Z,99970.66
2023-02-17T11:54:19.584Z,99971.44
2023-02-17T11:57:12.749Z,99956.56
2023-02-17T12:00:05.777Z,99956.47
2023-02-17T12:03:01.924Z,99954.72
2023-02-17T12:05:56.203Z,99911.69
2023-02-17T12:08:29.235Z,99937.19
2023-02-17T12:11:37.620Z,99937.06
2023-02-17T12:14:34.834Z,99940.53
2023-02-17T12:17:13.751Z,99928.25
2023-02-17T12:20:02.300Z,99924.75
2023-02-17T12:22:59.862Z,99918.56
2023-02-17T12:25:44.534Z,99913.31
2023-02-17T12:28:36.121Z,99910.59
2023-02-17T12:31:15.330Z,99908.75
2023-02-17T12:34:14.465Z,99908.69
2023-02-17T12:37:02.293Z,99893.81
2023-02-17T12:39:58.118Z,99892.03
2023-02-17T12:42:57.546Z,99888.47
2023-02-17T12:45:56.297Z,99888.44
2023-02-17T12:49:05.919Z,99823.31
2023-02-17T12:52:02.821Z,99885.69
2023-02-17T12:54:56.772Z,99878.69
2023-02-17T12:58:06.773Z,99877.81
2023-02-17T13:00:59.309Z,99844.19
2023-02-17T13:03:50.763Z,99872.41
2023-02-17T13:06:47.655Z,99864.53
2023-02-17T13:09:51.873Z,99863.56
2023-02-17T13:12:44.722Z,99854.81
2023-02-17T13:15:55.605Z,99856.50
2023-02-17T13:18:51.687Z,99813.56
2023-02-17T13:21:51.926Z,99850.31
2023-02-17T13:24:59.909Z,99803.09
2023-02-17T13:27:52.709Z,99841.47
2023-02-17T13:30:42.701Z,99847.59
2023-02-17T13:33:46.942Z,99850.16
2023-02-17T13:36:39.443Z,99843.06
2023-02-17T13:39:28.557Z,99842.19
2023-02-17T13:41:58.542Z,99837.75
2023-02-17T13:44:41.750Z,99835.94
2023-02-17T13:47:37.860Z,99818.72
2023-02-17T13:50:25.885Z,99827.09
2023-02-17T13:53:12.987Z,99824.47
2023-02-17T13:55:59.902Z,99816.53
2023-02-17T13:58:52.940Z,99813.88
2023-02-17T14:01:44.655Z,99809.47
2023-02-17T14:04:46.027Z,99805.94
2023-02-17T14:07:13.011Z,99765.53
2023-02-17T14:09:42.433Z,99795.31
2023-02-17T14:12:21.363Z,99788.38
2023-02-17T14:14:48.421Z,99786.56
2023-02-17T14:17:32.655Z,99789.19
2023-02-17T14:20:00.946Z,99785.50
2023-02-17T14:22:33.035Z,99753.72
2023-02-17T14:25:15.027Z,99773.97
2023-02-17T14:27:47.566Z,99769.53
2023-02-17T14:30:51.591Z,99765.16
2023-02-17T14:33:40.744Z,99765.97
2023-02-17T14:36:27.845Z,99766.78
2023-02-17T14:39:16.602Z,99765.91
2023-02-17T14:42:03.769Z,99728.03
2023-02-17T14:44:50.645Z,99764.09
2023-02-17T14:47:39.976Z,99765.91
2023-02-17T14:50:07.400Z,99770.22
2023-02-17T14:52:48.624Z,99757.09
2023-02-17T14:55:47.319Z,99754.47
2023-02-17T14:58:42.377Z,99757.97
2023-02-17T15:01:32.737Z,99737.34
2023-02-17T15:04:19.648Z,99747.47
2023-02-17T15:07:09.573Z,99714.56
2023-02-17T15:09:56.386Z,99733.47
2023-02-17T15:12:43.387Z,99711.66
2023-02-17T15:15:35.562Z,99705.78
2023-02-17T15:18:22.513Z,99722.03
2023-02-17T15:20:59.720Z,99699.50
2023-02-17T15:23:31.843Z,99702.81
2023-02-17T15:25:59.112Z,99696.63
2023-02-17T15:28:26.223Z,99704.53
2023-02-17T15:31:15.797Z,99686.25
2023-02-17T15:34:11.119Z,99690.53
2023-02-17T15:36:57.936Z,99687.84
2023-02-17T15:39:45.098Z,99692.25
2023-02-17T15:42:33.452Z,99640.66
2023-02-17T15:45:20.471Z,99682.66
2023-02-17T15:48:08.683Z,99674.72
2023-02-17T15:50:55.671Z,99667.81
2023-02-17T15:53:42.616Z,99674.66
2023-02-17T15:56:38.454Z,99672.94
2023-02-17T15:59:31.724Z,99646.00
2023-02-17T16:02:21.372Z,99652.81
2023-02-17T16:05:08.394Z,99616.50
2023-02-17T16:07:55.428Z,99644.00
2023-02-17T16:10:44.618Z,99639.63
2023-02-17T16:13:35.351Z,99632.56
2023-02-17T16:16:22.237Z,99636.94
2023-02-17T16:19:09.771Z,99643.00
2023-02-17T16:21:56.590Z,99635.13
2023-02-17T16:24:43.590Z,99635.06
2023-02-17T16:27:34.599Z,99617.56
2023-02-17T16:30:21.901Z,99607.06
2023-02-17T16:33:10.205Z,99601.78
2023-02-17T16:35:57.658Z,99593.91
2023-02-17T16:38:44.750Z,99576.78
2023-02-17T16:41:34.191Z,99579.84
2023-02-17T16:44:20.977Z,99579.78
2023-02-17T16:47:11.095Z,99564.22
2023-02-17T16:49:58.205Z,99574.59
2023-02-17T16:52:47.252Z,99575.41
2023-02-17T16:55:39.742Z,99575.34
2023-02-17T16:58:35.151Z,99578.84
2023-02-17T17:01:24.208Z,99580.53
2023-02-17T17:04:11.436Z,99553.16
2023-02-17T17:07:03.427Z,99576.16
2023-02-17T17:10:14.385Z,99571.66
2023-02-17T17:12:57.633Z,99562.03
2023-02-17T17:15:45.010Z,99550.00
2023-02-17T17:18:39.666Z,99555.00
2023-02-17T17:21:26.640Z,99553.16
2023-02-17T17:24:13.536Z,99546.13
2023-02-17T17:27:08.324Z,99474.41
2023-02-17T17:29:55.105Z,99538.31
2023-02-17T17:32:42.237Z,99536.69
2023-02-17T17:35:29.205Z,99521.88
2023-02-17T17:38:16.659Z,99534.56
2023-02-17T17:41:11.534Z,99529.28
2023-02-17T17:43:58.402Z,99529.28
2023-02-17T17:46:50.447Z,99489.00
2023-02-17T17:49:37.542Z,99516.09
2023-02-17T17:52:24.588Z,99521.34
2023-02-17T17:55:13.781Z,99482.06
2023-02-17T17:57:45.628Z,99520.34
2023-02-17T18:00:35.636Z,99515.09
2023-02-17T18:03:22.494Z,99513.31
2023-02-17T18:06:09.888Z,99447.53
2023-02-17T18:08:57.011Z,99478.97
2023-02-17T18:11:24.748Z,99501.94
2023-02-17T18:13:55.027Z,99503.66
2023-02-17T18:16:24.599Z,99503.66
2023-02-17T18:19:11.881Z,99496.69
2023-02-17T18:21:58.796Z,99494.94
2023-02-17T18:24:45.775Z,99469.28
2023-02-17T18:27:32.739Z,99499.31
2023-02-17T18:30:19.821Z,99462.53
2023-02-17T18:33:07.654Z,99494.06
2023-02-17T18:35:56.049Z,99452.91
2023-02-17T18:38:43.005Z,99488.75
2023-02-17T18:41:40.982Z,99454.47
2023-02-17T18:44:28.360Z,99459.47
2023-02-17T18:47:15.403Z,99449.16
2023-02-17T18:50:02.290Z,99477.38
2023-02-17T18:52:49.178Z,99467.72
2023-02-17T18:55:36.139Z,99398.66
2023-02-17T18:58:23.211Z,99466.03
2023-02-17T19:01:10.205Z,99458.97
2023-02-17T19:03:57.231Z,99453.94
2023-02-17T19:06:47.179Z,99461.63
2023-02-17T19:09:34.037Z,99450.34
2023-02-17T19:12:20.984Z,99456.34
2023-02-17T19:15:08.624Z,99440.78
2023-02-17T19:17:56.556Z,99458.16
2023-02-17T19:20:47.926Z,99441.66
2023-02-17T19:23:34.903Z,99444.16
2023-02-17T19:26:23.762Z,99445.03
2023-02-17T19:29:10.753Z,99444.09
2023-02-17T19:31:57.714Z,99435.69
2023-02-17T19:34:44.705Z,99424.50
2023-02-17T19:37:31.755Z,99428.59
2023-02-17T19:40:18.818Z,99425.84
2023-02-17T19:43:05.926Z,99427.53
2023-02-17T19:45:53.016Z,99421.56
2023-02-17T19:48:40.056Z,99423.22
2023-02-17T19:51:28.463Z,99415.31
2023-02-17T19:54:17.634Z,99350.50
2023-02-17T19:57:04.494Z,99410.13
2023-02-17T19:59:52.461Z,99408.38
2023-02-17T20:02:39.460Z,99407.50
2023-02-17T20:05:26.926Z,99409.28
2023-02-17T20:08:14.448Z,99413.69
2023-02-17T20:11:01.454Z,99412.75
2023-02-17T20:13:48.829Z,99399.69
2023-02-17T20:16:36.710Z,99404.09
2023-02-17T20:19:25.911Z,99406.72
2023-02-17T20:21:53.493Z,99333.25
2023-02-17T20:24:20.609Z,99393.94
2023-02-17T20:27:09.089Z,99404.16
2023-02-17T20:29:56.044Z,99399.78
2023-02-17T20:32:43.014Z,99400.59
2023-02-17T20:35:33.271Z,99397.16
2023-02-17T20:38:20.210Z,99347.03
2023-02-17T20:41:07.261Z,99392.09
2023-02-17T20:43:55.654Z,99403.28
2023-02-17T20:46:48.973Z,99401.00
2023-02-17T20:49:36.080Z,99392.84
2023-02-17T20:52:23.196Z,99400.75
2023-02-17T20:55:10.213Z,99391.16
2023-02-17T20:57:57.138Z,99384.44
2023-02-17T21:00:46.155Z,99391.16
2023-02-17T21:03:33.246Z,99357.13
2023-02-17T21:06:25.385Z,99392.03
2023-02-17T21:09:18.046Z,99389.53
2023-02-17T21:12:05.686Z,99320.25
2023-02-17T21:14:52.723Z,99381.72
2023-02-17T21:17:39.614Z,99386.84
2023-02-17T21:20:37.165Z,99386.84
2023-02-17T21:23:24.118Z,99382.41
2023-02-17T21:26:11.039Z,99388.59
2023-02-17T21:28:58.590Z,99380.66
2023-02-17T21:31:27.806Z,99386.84
2023-02-17T21:33:55.309Z,99373.72
2023-02-17T21:36:42.276Z,99378.03
2023-02-17T21:39:29.281Z,99372.78
2023-02-17T21:42:16.268Z,99370.28
2023-02-17T21:45:12.149Z,99365.97
2023-02-17T21:47:59.286Z,99366.72
2023-02-17T21:50:46.452Z,99362.28
2023-02-17T21:53:33.534Z,99368.47
2023-02-17T21:56:21.126Z,99348.69
2023-02-17T21:59:13.315Z,99349.22
2023-02-17T22:02:00.206Z,99356.28
2023-02-17T22:04:47.121Z,99355.41
2023-02-17T22:07:53.906Z,99352.78
2023-02-17T22:10:40.804Z,99315.13
2023-02-17T22:13:27.871Z,99344.03
2023-02-17T22:16:18.266Z,99343.09
2023-02-17T22:19:05.209Z,99350.97
2023-02-17T22:21:52.307Z,99337.00
2023-02-17T22:24:43.016Z,99331.91
2023-02-17T22:27:29.905Z,99340.47
2023-02-17T22:30:16.822Z,99331.75
2023-02-17T22:33:03.757Z,99336.06
2023-02-17T22:35:50.852Z,99330.91
2023-02-17T22:38:37.942Z,99334.38
2023-02-17T22:41:30.375Z,99329.13
2023-02-17T22:44:17.321Z,99331.75
2023-02-17T22:47:04.262Z,99329.97
2023-02-17T22:49:51.146Z,99332.59
2023-02-17T22:52:38.191Z,99320.47
2023-02-17T22:55:25.518Z,99269.47
2023-02-17T22:58:12.627Z,99329.88
2023-02-17T23:00:59.491Z,99325.56
2023-02-17T23:03:46.380Z,99329.06
2023-02-17T23:06:38.993Z,99315.06
2023-02-17T23:09:28.392Z,99322.88
2023-02-17T23:12:15.305Z,99288.78
2023-02-17T23:15:02.522Z,99264.03
2023-02-17T23:17:49.350Z,99317.63
2023-02-17T23:20:36.469Z,99321.94
2023-02-17T23:23:23.278Z,99318.41
2023-02-17T23:26:12.923Z,99313.22
2023-02-17T23:28:59.786Z,99308.81
2023-02-17T23:31:46.768Z,99301.78
2023-02-17T23:34:34.802Z,99303.63
2023-02-17T23:37:21.991Z,99265.31
2023-02-17T23:40:08.818Z,99301.72
2023-02-17T23:42:56.545Z,99295.59
2023-02-17T23:45:43.364Z,99305.22
2023-02-17T23:48:32.489Z,99293.84
2023-02-17T23:51:24.520Z,99293.84
2023-02-17T23:54:11.707Z,99292.91
2023-02-17T23:56:58.807Z,99292.16
2023-02-17T23:59:45.966Z,99290.28
